sensor_id;sensor_type;location;lat;lon;timestamp;pressure;altitude;pressure_sealevel;temperature
74539;BMP180;66042;51.090;-115.340;2024-02-23T00:02:21;86834.00;;;13.94
74539;BMP180;66042;51.090;-115.340;2024-02-23T00:04:49;86837.60;;;13.60
74539;BMP180;66042;51.090;-115.340;2024-02-23T00:07:16;86828.40;;;13.20
74539;BMP180;66042;51.090;-115.340;2024-02-23T00:09:43;86830.60;;;12.70
74539;BMP180;66042;51.090;-115.340;2024-02-23T00:12:10;86832.60;;;12.30
74539;BMP180;66042;51.090;-115.340;2024-02-23T00:14:37;86834.40;;;12.00
74539;BMP180;66042;51.090;-115.340;2024-02-23T00:17:04;86837.60;;;11.70
74539;BMP180;66042;51.090;-115.340;2024-02-23T00:19:32;86835.80;;;11.36
74539;BMP180;66042;51.090;-115.340;2024-02-23T00:21:59;86836.60;;;11.00
74539;BMP180;66042;51.090;-115.340;2024-02-23T00:24:26;86833.20;;;10.80
74539;BMP180;66042;51.090;-115.340;2024-02-23T00:26:54;86832.80;;;10.60
74539;BMP180;66042;51.090;-115.340;2024-02-23T00:29:21;86838.20;;;10.32
74539;BMP180;66042;51.090;-115.340;2024-02-23T00:31:48;86831.80;;;10.10
74539;BMP180;66042;51.090;-115.340;2024-02-23T00:34:16;86831.00;;;9.80
74539;BMP180;66042;51.090;-115.340;2024-02-23T00:36:43;86833.80;;;9.60
74539;BMP180;66042;51.090;-115.340;2024-02-23T00:39:11;86838.40;;;9.46
74539;BMP180;66042;51.090;-115.340;2024-02-23T00:41:38;86838.00;;;9.30
74539;BMP180;66042;51.090;-115.340;2024-02-23T00:44:05;86843.80;;;9.10
74539;BMP180;66042;51.090;-115.340;2024-02-23T00:46:32;86837.20;;;8.94
74539;BMP180;66042;51.090;-115.340;2024-02-23T00:48:59;86837.40;;;8.80
74539;BMP180;66042;51.090;-115.340;2024-02-23T00:51:27;86837.60;;;8.54
74539;BMP180;66042;51.090;-115.340;2024-02-23T00:53:53;86837.60;;;8.40
74539;BMP180;66042;51.090;-115.340;2024-02-23T00:56:21;86838.20;;;8.22
74539;BMP180;66042;51.090;-115.340;2024-02-23T00:58:48;86842.20;;;8.00
74539;BMP180;66042;51.090;-115.340;2024-02-23T01:01:15;86843.20;;;7.80
74539;BMP180;66042;51.090;-115.340;2024-02-23T01:03:42;86843.00;;;7.68
74539;BMP180;66042;51.090;-115.340;2024-02-23T01:06:09;86841.80;;;7.50
74539;BMP180;66042;51.090;-115.340;2024-02-23T01:08:36;86843.00;;;7.30
74539;BMP180;66042;51.090;-115.340;2024-02-23T01:11:03;86843.80;;;7.10
74539;BMP180;66042;51.090;-115.340;2024-02-23T01:13:30;86849.60;;;7.00
74539;BMP180;66042;51.090;-115.340;2024-02-23T01:15:57;86852.00;;;6.90
74539;BMP180;66042;51.090;-115.340;2024-02-23T01:18:25;86853.80;;;6.70
74539;BMP180;66042;51.090;-115.340;2024-02-23T01:20:52;86855.00;;;6.50
74539;BMP180;66042;51.090;-115.340;2024-02-23T01:23:20;86860.40;;;6.30
74539;BMP180;66042;51.090;-115.340;2024-02-23T01:25:46;86859.60;;;6.30
74539;BMP180;66042;51.090;-115.340;2024-02-23T01:28:14;86856.40;;;6.20
74539;BMP180;66042;51.090;-115.340;2024-02-23T01:30:40;86860.20;;;6.04
74539;BMP180;66042;51.090;-115.340;2024-02-23T01:33:07;86866.20;;;5.90
74539;BMP180;66042;51.090;-115.340;2024-02-23T01:35:35;86864.20;;;5.80
74539;BMP180;66042;51.090;-115.340;2024-02-23T01:38:03;86865.00;;;5.70
74539;BMP180;66042;51.090;-115.340;2024-02-23T01:40:30;86869.80;;;5.52
74539;BMP180;66042;51.090;-115.340;2024-02-23T01:43:04;86868.20;;;5.32
74539;BMP180;66042;51.090;-115.340;2024-02-23T01:45:32;86871.60;;;5.30
74539;BMP180;66042;51.090;-115.340;2024-02-23T01:48:01;86877.00;;;5.20
74539;BMP180;66042;51.090;-115.340;2024-02-23T01:50:30;86873.20;;;5.16
74539;BMP180;66042;51.090;-115.340;2024-02-23T01:53:01;86879.00;;;5.10
74539;BMP180;66042;51.090;-115.340;2024-02-23T01:55:29;86871.60;;;5.00
74539;BMP180;66042;51.090;-115.340;2024-02-23T01:57:58;86877.60;;;5.00
74539;BMP180;66042;51.090;-115.340;2024-02-23T02:00:26;86885.40;;;4.90
74539;BMP180;66042;51.090;-115.340;2024-02-23T02:02:53;86882.00;;;4.90
74539;BMP180;66042;51.090;-115.340;2024-02-23T02:05:20;86881.00;;;4.84
74539;BMP180;66042;51.090;-115.340;2024-02-23T02:07:49;86885.60;;;4.72
74539;BMP180;66042;51.090;-115.340;2024-02-23T02:10:21;86884.80;;;4.60
74539;BMP180;66042;51.090;-115.340;2024-02-23T02:12:48;86886.60;;;4.50
74539;BMP180;66042;51.090;-115.340;2024-02-23T02:15:15;86893.20;;;4.42
74539;BMP180;66042;51.090;-115.340;2024-02-23T02:17:42;86895.80;;;4.38
74539;BMP180;66042;51.090;-115.340;2024-02-23T02:20:13;86890.80;;;4.30
74539;BMP180;66042;51.090;-115.340;2024-02-23T02:22:41;86894.80;;;4.20
74539;BMP180;66042;51.090;-115.340;2024-02-23T02:25:08;86894.60;;;4.10
74539;BMP180;66042;51.090;-115.340;2024-02-23T02:27:44;86899.00;;;4.00
74539;BMP180;66042;51.090;-115.340;2024-02-23T02:30:30;86899.20;;;4.00
74539;BMP180;66042;51.090;-115.340;2024-02-23T02:33:17;86896.40;;;3.90
74539;BMP180;66042;51.090;-115.340;2024-02-23T02:35:53;86898.40;;;3.82
74539;BMP180;66042;51.090;-115.340;2024-02-23T02:38:36;86900.00;;;3.80
74539;BMP180;66042;51.090;-115.340;2024-02-23T02:41:19;86904.00;;;3.70
74539;BMP180;66042;51.090;-115.340;2024-02-23T02:43:58;86896.00;;;3.60
74539;BMP180;66042;51.090;-115.340;2024-02-23T02:46:25;86900.60;;;3.50
74539;BMP180;66042;51.090;-115.340;2024-02-23T02:48:57;86897.80;;;3.48
74539;BMP180;66042;51.090;-115.340;2024-02-23T02:51:49;86903.40;;;3.40
74539;BMP180;66042;51.090;-115.340;2024-02-23T02:54:16;86902.20;;;3.30
74539;BMP180;66042;51.090;-115.340;2024-02-23T02:57:02;86903.80;;;3.30
74539;BMP180;66042;51.090;-115.340;2024-02-23T02:59:35;86893.80;;;3.20
74539;BMP180;66042;51.090;-115.340;2024-02-23T03:02:05;86895.40;;;3.10
74539;BMP180;66042;51.090;-115.340;2024-02-23T03:04:32;86891.60;;;3.04
74539;BMP180;66042;51.090;-115.340;2024-02-23T03:07:09;86898.60;;;3.00
74539;BMP180;66042;51.090;-115.340;2024-02-23T03:09:57;86904.40;;;2.90
74539;BMP180;66042;51.090;-115.340;2024-02-23T03:12:39;86901.00;;;2.84
74539;BMP180;66042;51.090;-115.340;2024-02-23T03:15:06;86896.00;;;2.80
74539;BMP180;66042;51.090;-115.340;2024-02-23T03:17:34;86899.40;;;2.70
74539;BMP180;66042;51.090;-115.340;2024-02-23T03:20:01;86900.40;;;2.70
74539;BMP180;66042;51.090;-115.340;2024-02-23T03:22:55;86901.20;;;2.60
74539;BMP180;66042;51.090;-115.340;2024-02-23T03:25:22;86899.60;;;2.50
74539;BMP180;66042;51.090;-115.340;2024-02-23T03:27:49;86902.00;;;2.50
74539;BMP180;66042;51.090;-115.340;2024-02-23T03:30:25;86902.60;;;2.40
74539;BMP180;66042;51.090;-115.340;2024-02-23T03:32:52;86907.20;;;2.40
74539;BMP180;66042;51.090;-115.340;2024-02-23T03:35:57;86909.00;;;2.30
74539;BMP180;66042;51.090;-115.340;2024-02-23T03:38:29;86913.80;;;2.20
74539;BMP180;66042;51.090;-115.340;2024-02-23T03:40:57;86909.20;;;2.20
74539;BMP180;66042;51.090;-115.340;2024-02-23T03:43:42;86908.40;;;2.20
74539;BMP180;66042;51.090;-115.340;2024-02-23T03:46:14;86906.80;;;2.10
74539;BMP180;66042;51.090;-115.340;2024-02-23T03:48:42;86907.00;;;2.10
74539;BMP180;66042;51.090;-115.340;2024-02-23T03:51:10;86911.00;;;2.10
74539;BMP180;66042;51.090;-115.340;2024-02-23T03:53:36;86908.00;;;2.00
74539;BMP180;66042;51.090;-115.340;2024-02-23T03:56:04;86910.00;;;2.00
74539;BMP180;66042;51.090;-115.340;2024-02-23T03:58:31;86913.00;;;1.98
74539;BMP180;66042;51.090;-115.340;2024-02-23T04:00:58;86914.20;;;1.90
74539;BMP180;66042;51.090;-115.340;2024-02-23T04:03:47;86909.40;;;1.90
74539;BMP180;66042;51.090;-115.340;2024-02-23T04:06:14;86914.40;;;1.80
74539;BMP180;66042;51.090;-115.340;2024-02-23T04:08:41;86912.40;;;1.80
74539;BMP180;66042;51.090;-115.340;2024-02-23T04:11:08;86905.80;;;1.74
74539;BMP180;66042;51.090;-115.340;2024-02-23T04:13:35;86912.40;;;1.70
74539;BMP180;66042;51.090;-115.340;2024-02-23T04:16:02;86912.20;;;1.70
74539;BMP180;66042;51.090;-115.340;2024-02-23T04:18:29;86913.20;;;1.70
74539;BMP180;66042;51.090;-115.340;2024-02-23T04:20:57;86913.20;;;1.70
74539;BMP180;66042;51.090;-115.340;2024-02-23T04:23:24;86909.40;;;1.70
74539;BMP180;66042;51.090;-115.340;2024-02-23T04:25:54;86911.80;;;1.70
74539;BMP180;66042;51.090;-115.340;2024-02-23T04:28:21;86917.00;;;1.60
74539;BMP180;66042;51.090;-115.340;2024-02-23T04:30:48;86920.20;;;1.60
74539;BMP180;66042;51.090;-115.340;2024-02-23T04:33:16;86915.20;;;1.60
74539;BMP180;66042;51.090;-115.340;2024-02-23T04:35:43;86916.60;;;1.60
74539;BMP180;66042;51.090;-115.340;2024-02-23T04:38:10;86916.00;;;1.60
74539;BMP180;66042;51.090;-115.340;2024-02-23T04:40:38;86920.60;;;1.60
74539;BMP180;66042;51.090;-115.340;2024-02-23T04:43:05;86915.00;;;1.60
74539;BMP180;66042;51.090;-115.340;2024-02-23T04:45:31;86915.20;;;1.60
74539;BMP180;66042;51.090;-115.340;2024-02-23T04:47:58;86918.20;;;1.50
74539;BMP180;66042;51.090;-115.340;2024-02-23T04:50:25;86915.80;;;1.50
74539;BMP180;66042;51.090;-115.340;2024-02-23T04:52:52;86915.00;;;1.50
74539;BMP180;66042;51.090;-115.340;2024-02-23T04:55:19;86913.80;;;1.40
74539;BMP180;66042;51.090;-115.340;2024-02-23T04:57:46;86917.60;;;1.40
74539;BMP180;66042;51.090;-115.340;2024-02-23T05:00:14;86914.00;;;1.30
74539;BMP180;66042;51.090;-115.340;2024-02-23T05:02:40;86916.80;;;1.30
74539;BMP180;66042;51.090;-115.340;2024-02-23T05:05:08;86917.80;;;1.20
74539;BMP180;66042;51.090;-115.340;2024-02-23T05:07:35;86917.20;;;1.20
74539;BMP180;66042;51.090;-115.340;2024-02-23T05:10:03;86917.40;;;1.28
74539;BMP180;66042;51.090;-115.340;2024-02-23T05:12:30;86915.80;;;1.30
74539;BMP180;66042;51.090;-115.340;2024-02-23T05:14:57;86916.20;;;1.30
74539;BMP180;66042;51.090;-115.340;2024-02-23T05:17:24;86917.00;;;1.30
74539;BMP180;66042;51.090;-115.340;2024-02-23T05:19:51;86911.20;;;1.20
74539;BMP180;66042;51.090;-115.340;2024-02-23T05:22:18;86908.20;;;1.16
74539;BMP180;66042;51.090;-115.340;2024-02-23T05:24:46;86907.60;;;1.10
74539;BMP180;66042;51.090;-115.340;2024-02-23T05:27:13;86908.20;;;1.10
74539;BMP180;66042;51.090;-115.340;2024-02-23T05:29:40;86905.80;;;1.10
74539;BMP180;66042;51.090;-115.340;2024-02-23T05:32:07;86904.80;;;1.08
74539;BMP180;66042;51.090;-115.340;2024-02-23T05:34:34;86904.00;;;1.00
74539;BMP180;66042;51.090;-115.340;2024-02-23T05:37:02;86901.20;;;0.90
74539;BMP180;66042;51.090;-115.340;2024-02-23T05:39:29;86901.60;;;0.82
74539;BMP180;66042;51.090;-115.340;2024-02-23T05:41:56;86897.60;;;0.80
74539;BMP180;66042;51.090;-115.340;2024-02-23T05:44:26;86903.80;;;0.82
74539;BMP180;66042;51.090;-115.340;2024-02-23T05:46:55;86901.80;;;0.80
74539;BMP180;66042;51.090;-115.340;2024-02-23T05:49:22;86898.60;;;0.80
74539;BMP180;66042;51.090;-115.340;2024-02-23T05:51:49;86901.40;;;0.80
74539;BMP180;66042;51.090;-115.340;2024-02-23T05:54:16;86902.60;;;0.80
74539;BMP180;66042;51.090;-115.340;2024-02-23T05:56:44;86906.80;;;0.80
74539;BMP180;66042;51.090;-115.340;2024-02-23T05:59:12;86901.20;;;0.80
74539;BMP180;66042;51.090;-115.340;2024-02-23T06:01:39;86898.20;;;0.80
74539;BMP180;66042;51.090;-115.340;2024-02-23T06:04:06;86904.20;;;0.80
74539;BMP180;66042;51.090;-115.340;2024-02-23T06:06:33;86903.20;;;0.78
74539;BMP180;66042;51.090;-115.340;2024-02-23T06:09:00;86902.80;;;0.78
74539;BMP180;66042;51.090;-115.340;2024-02-23T06:11:29;86901.60;;;0.70
74539;BMP180;66042;51.090;-115.340;2024-02-23T06:13:56;86906.20;;;0.70
74539;BMP180;66042;51.090;-115.340;2024-02-23T06:16:23;86905.80;;;0.70
74539;BMP180;66042;51.090;-115.340;2024-02-23T06:18:50;86904.20;;;0.70
74539;BMP180;66042;51.090;-115.340;2024-02-23T06:21:18;86906.20;;;0.64
74539;BMP180;66042;51.090;-115.340;2024-02-23T06:23:45;86906.80;;;0.60
74539;BMP180;66042;51.090;-115.340;2024-02-23T06:26:12;86901.00;;;0.60
74539;BMP180;66042;51.090;-115.340;2024-02-23T06:28:40;86898.00;;;0.60
74539;BMP180;66042;51.090;-115.340;2024-02-23T06:31:10;86904.00;;;0.60
74539;BMP180;66042;51.090;-115.340;2024-02-23T06:33:38;86898.20;;;0.50
74539;BMP180;66042;51.090;-115.340;2024-02-23T06:36:05;86894.60;;;0.50
74539;BMP180;66042;51.090;-115.340;2024-02-23T06:38:32;86893.00;;;0.40
74539;BMP180;66042;51.090;-115.340;2024-02-23T06:41:00;86897.00;;;0.40
74539;BMP180;66042;51.090;-115.340;2024-02-23T06:43:27;86891.40;;;0.40
74539;BMP180;66042;51.090;-115.340;2024-02-23T06:45:54;86890.80;;;0.40
74539;BMP180;66042;51.090;-115.340;2024-02-23T06:48:23;86892.60;;;0.32
74539;BMP180;66042;51.090;-115.340;2024-02-23T06:50:50;86895.20;;;0.30
74539;BMP180;66042;51.090;-115.340;2024-02-23T06:53:17;86902.80;;;0.30
74539;BMP180;66042;51.090;-115.340;2024-02-23T06:55:45;86895.00;;;0.30
74539;BMP180;66042;51.090;-115.340;2024-02-23T06:58:12;86898.20;;;0.30
74539;BMP180;66042;51.090;-115.340;2024-02-23T07:00:41;86898.60;;;0.30
74539;BMP180;66042;51.090;-115.340;2024-02-23T07:03:08;86897.60;;;0.20
74539;BMP180;66042;51.090;-115.340;2024-02-23T07:05:35;86890.40;;;0.20
74539;BMP180;66042;51.090;-115.340;2024-02-23T07:08:02;86891.60;;;0.20
74539;BMP180;66042;51.090;-115.340;2024-02-23T07:10:30;86896.20;;;0.16
74539;BMP180;66042;51.090;-115.340;2024-02-23T07:12:57;86891.80;;;0.10
74539;BMP180;66042;51.090;-115.340;2024-02-23T07:15:24;86894.00;;;0.10
74539;BMP180;66042;51.090;-115.340;2024-02-23T07:17:52;86892.60;;;0.10
74539;BMP180;66042;51.090;-115.340;2024-02-23T07:20:20;86890.80;;;0.00
74539;BMP180;66042;51.090;-115.340;2024-02-23T07:22:47;86887.40;;;0.00
74539;BMP180;66042;51.090;-115.340;2024-02-23T07:25:19;86890.80;;;0.00
74539;BMP180;66042;51.090;-115.340;2024-02-23T07:27:49;86891.40;;;0.00
74539;BMP180;66042;51.090;-115.340;2024-02-23T07:30:16;86896.20;;;-0.10
74539;BMP180;66042;51.090;-115.340;2024-02-23T07:32:44;86895.60;;;-0.10
74539;BMP180;66042;51.090;-115.340;2024-02-23T07:35:13;86898.60;;;-0.10
74539;BMP180;66042;51.090;-115.340;2024-02-23T07:37:40;86893.40;;;-0.20
74539;BMP180;66042;51.090;-115.340;2024-02-23T07:40:07;86885.60;;;-0.20
74539;BMP180;66042;51.090;-115.340;2024-02-23T07:42:35;86894.60;;;-0.20
74539;BMP180;66042;51.090;-115.340;2024-02-23T07:45:06;86892.60;;;-0.30
74539;BMP180;66042;51.090;-115.340;2024-02-23T07:47:34;86897.00;;;-0.30
74539;BMP180;66042;51.090;-115.340;2024-02-23T07:50:01;86899.00;;;-0.30
74539;BMP180;66042;51.090;-115.340;2024-02-23T07:52:29;86899.00;;;-0.30
74539;BMP180;66042;51.090;-115.340;2024-02-23T07:54:56;86901.40;;;-0.32
74539;BMP180;66042;51.090;-115.340;2024-02-23T07:57:23;86903.40;;;-0.38
74539;BMP180;66042;51.090;-115.340;2024-02-23T07:59:51;86907.00;;;-0.40
74539;BMP180;66042;51.090;-115.340;2024-02-23T08:02:21;86901.40;;;-0.40
74539;BMP180;66042;51.090;-115.340;2024-02-23T08:04:48;86902.80;;;-0.40
74539;BMP180;66042;51.090;-115.340;2024-02-23T08:07:17;86894.20;;;-0.42
74539;BMP180;66042;51.090;-115.340;2024-02-23T08:09:44;86895.80;;;-0.50
74539;BMP180;66042;51.090;-115.340;2024-02-23T08:12:11;86894.00;;;-0.50
74539;BMP180;66042;51.090;-115.340;2024-02-23T08:14:40;86892.40;;;-0.50
74539;BMP180;66042;51.090;-115.340;2024-02-23T08:17:10;86896.60;;;-0.50
74539;BMP180;66042;51.090;-115.340;2024-02-23T08:19:37;86892.40;;;-0.52
74539;BMP180;66042;51.090;-115.340;2024-02-23T08:22:05;86895.60;;;-0.60
74539;BMP180;66042;51.090;-115.340;2024-02-23T08:24:32;86897.40;;;-0.60
74539;BMP180;66042;51.090;-115.340;2024-02-23T08:26:58;86896.60;;;-0.60
74539;BMP180;66042;51.090;-115.340;2024-02-23T08:29:27;86891.00;;;-0.64
74539;BMP180;66042;51.090;-115.340;2024-02-23T08:31:54;86888.80;;;-0.66
74539;BMP180;66042;51.090;-115.340;2024-02-23T08:34:21;86889.40;;;-0.70
74539;BMP180;66042;51.090;-115.340;2024-02-23T08:36:48;86887.80;;;-0.70
74539;BMP180;66042;51.090;-115.340;2024-02-23T08:39:15;86884.00;;;-0.70
74539;BMP180;66042;51.090;-115.340;2024-02-23T08:41:42;86882.00;;;-0.70
74539;BMP180;66042;51.090;-115.340;2024-02-23T08:44:09;86884.00;;;-0.70
74539;BMP180;66042;51.090;-115.340;2024-02-23T08:46:36;86889.00;;;-0.70
74539;BMP180;66042;51.090;-115.340;2024-02-23T08:49:06;86893.60;;;-0.70
74539;BMP180;66042;51.090;-115.340;2024-02-23T08:51:33;86888.20;;;-0.70
74539;BMP180;66042;51.090;-115.340;2024-02-23T08:54:00;86887.80;;;-0.80
74539;BMP180;66042;51.090;-115.340;2024-02-23T08:56:36;86886.80;;;-0.90
74539;BMP180;66042;51.090;-115.340;2024-02-23T08:59:03;86881.20;;;-0.94
74539;BMP180;66042;51.090;-115.340;2024-02-23T09:01:30;86881.20;;;-1.00
74539;BMP180;66042;51.090;-115.340;2024-02-23T09:03:57;86887.00;;;-1.00
74539;BMP180;66042;51.090;-115.340;2024-02-23T09:06:25;86884.00;;;-1.00
74539;BMP180;66042;51.090;-115.340;2024-02-23T09:08:52;86880.40;;;-1.00
74539;BMP180;66042;51.090;-115.340;2024-02-23T09:11:23;86887.00;;;-1.00
74539;BMP180;66042;51.090;-115.340;2024-02-23T09:13:50;86886.60;;;-1.00
74539;BMP180;66042;51.090;-115.340;2024-02-23T09:16:17;86877.80;;;-1.00
74539;BMP180;66042;51.090;-115.340;2024-02-23T09:18:45;86875.80;;;-1.00
74539;BMP180;66042;51.090;-115.340;2024-02-23T09:21:12;86876.40;;;-1.00
74539;BMP180;66042;51.090;-115.340;2024-02-23T09:23:39;86874.60;;;-1.00
74539;BMP180;66042;51.090;-115.340;2024-02-23T09:26:10;86874.80;;;-1.00
74539;BMP180;66042;51.090;-115.340;2024-02-23T09:28:38;86875.80;;;-1.00
74539;BMP180;66042;51.090;-115.340;2024-02-23T09:31:08;86874.20;;;-1.00
74539;BMP180;66042;51.090;-115.340;2024-02-23T09:33:35;86877.00;;;-1.00
74539;BMP180;66042;51.090;-115.340;2024-02-23T09:36:03;86865.40;;;-1.00
74539;BMP180;66042;51.090;-115.340;2024-02-23T09:38:30;86862.60;;;-1.00
74539;BMP180;66042;51.090;-115.340;2024-02-23T09:40:59;86860.40;;;-1.00
74539;BMP180;66042;51.090;-115.340;2024-02-23T09:43:29;86859.00;;;-1.00
74539;BMP180;66042;51.090;-115.340;2024-02-23T09:45:59;86869.60;;;-1.00
74539;BMP180;66042;51.090;-115.340;2024-02-23T09:48:26;86872.80;;;-1.06
74539;BMP180;66042;51.090;-115.340;2024-02-23T09:50:55;86872.60;;;-1.08
74539;BMP180;66042;51.090;-115.340;2024-02-23T09:53:24;86870.20;;;-1.06
74539;BMP180;66042;51.090;-115.340;2024-02-23T09:55:53;86869.00;;;-1.10
74539;BMP180;66042;51.090;-115.340;2024-02-23T09:58:22;86873.00;;;-1.10
74539;BMP180;66042;51.090;-115.340;2024-02-23T10:00:50;86875.00;;;-1.10
74539;BMP180;66042;51.090;-115.340;2024-02-23T10:03:18;86873.00;;;-1.10
74539;BMP180;66042;51.090;-115.340;2024-02-23T10:05:45;86875.40;;;-1.18
74539;BMP180;66042;51.090;-115.340;2024-02-23T10:08:12;86875.20;;;-1.14
74539;BMP180;66042;51.090;-115.340;2024-02-23T10:10:39;86869.60;;;-1.20
74539;BMP180;66042;51.090;-115.340;2024-02-23T10:13:07;86867.60;;;-1.20
74539;BMP180;66042;51.090;-115.340;2024-02-23T10:15:34;86875.00;;;-1.20
74539;BMP180;66042;51.090;-115.340;2024-02-23T10:18:02;86872.80;;;-1.20
74539;BMP180;66042;51.090;-115.340;2024-02-23T10:20:29;86871.60;;;-1.20
74539;BMP180;66042;51.090;-115.340;2024-02-23T10:22:57;86875.20;;;-1.20
74539;BMP180;66042;51.090;-115.340;2024-02-23T10:25:24;86875.40;;;-1.30
74539;BMP180;66042;51.090;-115.340;2024-02-23T10:27:51;86872.20;;;-1.26
74539;BMP180;66042;51.090;-115.340;2024-02-23T10:30:19;86867.20;;;-1.30
74539;BMP180;66042;51.090;-115.340;2024-02-23T10:32:46;86869.00;;;-1.30
74539;BMP180;66042;51.090;-115.340;2024-02-23T10:35:16;86869.40;;;-1.30
74539;BMP180;66042;51.090;-115.340;2024-02-23T10:37:44;86866.80;;;-1.30
74539;BMP180;66042;51.090;-115.340;2024-02-23T10:40:16;86870.20;;;-1.40
74539;BMP180;66042;51.090;-115.340;2024-02-23T10:42:48;86871.20;;;-1.40
74539;BMP180;66042;51.090;-115.340;2024-02-23T10:45:21;86859.80;;;-1.40
74539;BMP180;66042;51.090;-115.340;2024-02-23T10:47:48;86862.40;;;-1.46
74539;BMP180;66042;51.090;-115.340;2024-02-23T10:50:18;86861.40;;;-1.50
74539;BMP180;66042;51.090;-115.340;2024-02-23T10:52:46;86857.80;;;-1.46
74539;BMP180;66042;51.090;-115.340;2024-02-23T10:55:15;86863.60;;;-1.50
74539;BMP180;66042;51.090;-115.340;2024-02-23T10:57:44;86862.00;;;-1.50
74539;BMP180;66042;51.090;-115.340;2024-02-23T11:00:14;86860.20;;;-1.50
74539;BMP180;66042;51.090;-115.340;2024-02-23T11:02:52;86858.40;;;-1.50
74539;BMP180;66042;51.090;-115.340;2024-02-23T11:05:20;86862.00;;;-1.50
74539;BMP180;66042;51.090;-115.340;2024-02-23T11:07:48;86851.60;;;-1.70
74539;BMP180;66042;51.090;-115.340;2024-02-23T11:10:16;86854.20;;;-1.78
74539;BMP180;66042;51.090;-115.340;2024-02-23T11:12:44;86857.00;;;-1.80
74539;BMP180;66042;51.090;-115.340;2024-02-23T11:15:27;86849.80;;;-1.90
74539;BMP180;66042;51.090;-115.340;2024-02-23T11:17:54;86856.20;;;-1.90
74539;BMP180;66042;51.090;-115.340;2024-02-23T11:20:22;86852.00;;;-1.90
74539;BMP180;66042;51.090;-115.340;2024-02-23T11:22:53;86853.80;;;-2.00
74539;BMP180;66042;51.090;-115.340;2024-02-23T11:25:20;86853.80;;;-2.00
74539;BMP180;66042;51.090;-115.340;2024-02-23T11:27:53;86854.20;;;-2.00
74539;BMP180;66042;51.090;-115.340;2024-02-23T11:30:20;86859.00;;;-1.90
74539;BMP180;66042;51.090;-115.340;2024-02-23T11:32:48;86859.40;;;-1.90
74539;BMP180;66042;51.090;-115.340;2024-02-23T11:35:16;86862.00;;;-2.00
74539;BMP180;66042;51.090;-115.340;2024-02-23T11:37:56;86859.00;;;-2.00
74539;BMP180;66042;51.090;-115.340;2024-02-23T11:40:33;86859.20;;;-2.00
74539;BMP180;66042;51.090;-115.340;2024-02-23T11:43:02;86861.00;;;-2.00
74539;BMP180;66042;51.090;-115.340;2024-02-23T11:45:30;86864.20;;;-1.92
74539;BMP180;66042;51.090;-115.340;2024-02-23T11:47:57;86862.40;;;-1.94
74539;BMP180;66042;51.090;-115.340;2024-02-23T11:50:25;86863.00;;;-1.92
74539;BMP180;66042;51.090;-115.340;2024-02-23T11:52:52;86860.40;;;-1.90
74539;BMP180;66042;51.090;-115.340;2024-02-23T11:55:20;86862.80;;;-1.90
74539;BMP180;66042;51.090;-115.340;2024-02-23T11:57:51;86868.60;;;-1.90
74539;BMP180;66042;51.090;-115.340;2024-02-23T12:00:18;86863.00;;;-1.90
74539;BMP180;66042;51.090;-115.340;2024-02-23T12:02:45;86866.00;;;-1.90
74539;BMP180;66042;51.090;-115.340;2024-02-23T12:05:17;86867.40;;;-1.92
74539;BMP180;66042;51.090;-115.340;2024-02-23T12:07:44;86870.20;;;-1.90
74539;BMP180;66042;51.090;-115.340;2024-02-23T12:10:11;86867.60;;;-1.90
74539;BMP180;66042;51.090;-115.340;2024-02-23T12:12:40;86870.40;;;-1.90
74539;BMP180;66042;51.090;-115.340;2024-02-23T12:15:08;86863.20;;;-1.90
74539;BMP180;66042;51.090;-115.340;2024-02-23T12:17:47;86860.60;;;-1.90
74539;BMP180;66042;51.090;-115.340;2024-02-23T12:20:14;86858.80;;;-1.96
74539;BMP180;66042;51.090;-115.340;2024-02-23T12:22:44;86859.00;;;-1.98
74539;BMP180;66042;51.090;-115.340;2024-02-23T12:25:12;86859.40;;;-2.00
74539;BMP180;66042;51.090;-115.340;2024-02-23T12:27:40;86861.40;;;-1.90
74539;BMP180;66042;51.090;-115.340;2024-02-23T12:30:14;86870.00;;;-1.90
74539;BMP180;66042;51.090;-115.340;2024-02-23T12:32:43;86870.40;;;-1.90
74539;BMP180;66042;51.090;-115.340;2024-02-23T12:35:12;86863.20;;;-1.92
74539;BMP180;66042;51.090;-115.340;2024-02-23T12:37:39;86864.20;;;-2.00
74539;BMP180;66042;51.090;-115.340;2024-02-23T12:40:08;86872.00;;;-1.98
74539;BMP180;66042;51.090;-115.340;2024-02-23T12:42:35;86868.80;;;-1.90
74539;BMP180;66042;51.090;-115.340;2024-02-23T12:45:03;86864.20;;;-1.90
74539;BMP180;66042;51.090;-115.340;2024-02-23T12:47:30;86858.40;;;-1.86
74539;BMP180;66042;51.090;-115.340;2024-02-23T12:49:57;86861.80;;;-1.80
74539;BMP180;66042;51.090;-115.340;2024-02-23T12:52:24;86866.20;;;-1.80
74539;BMP180;66042;51.090;-115.340;2024-02-23T12:54:51;86864.00;;;-1.80
74539;BMP180;66042;51.090;-115.340;2024-02-23T12:57:18;86859.40;;;-1.80
74539;BMP180;66042;51.090;-115.340;2024-02-23T12:59:45;86862.40;;;-1.72
74539;BMP180;66042;51.090;-115.340;2024-02-23T13:02:12;86861.00;;;-1.70
74539;BMP180;66042;51.090;-115.340;2024-02-23T13:04:39;86858.60;;;-1.70
74539;BMP180;66042;51.090;-115.340;2024-02-23T13:07:07;86858.00;;;-1.70
74539;BMP180;66042;51.090;-115.340;2024-02-23T13:09:34;86854.20;;;-1.74
74539;BMP180;66042;51.090;-115.340;2024-02-23T13:12:02;86854.60;;;-1.80
74539;BMP180;66042;51.090;-115.340;2024-02-23T13:14:29;86851.40;;;-1.80
74539;BMP180;66042;51.090;-115.340;2024-02-23T13:16:56;86848.00;;;-1.72
74539;BMP180;66042;51.090;-115.340;2024-02-23T13:19:23;86847.40;;;-1.70
74539;BMP180;66042;51.090;-115.340;2024-02-23T13:21:50;86849.00;;;-1.70
74539;BMP180;66042;51.090;-115.340;2024-02-23T13:24:17;86844.20;;;-1.80
74539;BMP180;66042;51.090;-115.340;2024-02-23T13:26:44;86839.20;;;-1.80
74539;BMP180;66042;51.090;-115.340;2024-02-23T13:29:11;86844.40;;;-1.80
74539;BMP180;66042;51.090;-115.340;2024-02-23T13:31:38;86850.00;;;-1.80
74539;BMP180;66042;51.090;-115.340;2024-02-23T13:34:06;86845.00;;;-1.80
74539;BMP180;66042;51.090;-115.340;2024-02-23T13:36:33;86850.20;;;-1.78
74539;BMP180;66042;51.090;-115.340;2024-02-23T13:39:00;86846.00;;;-1.80
74539;BMP180;66042;51.090;-115.340;2024-02-23T13:41:28;86846.00;;;-1.76
74539;BMP180;66042;51.090;-115.340;2024-02-23T13:43:55;86840.80;;;-1.76
74539;BMP180;66042;51.090;-115.340;2024-02-23T13:46:22;86838.80;;;-1.70
74539;BMP180;66042;51.090;-115.340;2024-02-23T13:49:04;86845.60;;;-1.70